Time;durP1;ratioP1;P1;durP2;ratioP2;P2;SDS_P1;SDS_P2;PMS_P1;PMS_P2;Temp;Humidity;BMP_temperature;BMP_pressure;BME280_temperature;BME280_humidity;BME280_pressure;Samples;Min_cycle;Max_cycle;Signal;HPM_P1;HPM_P2
2023/03/18 00:01:02;;;;;;;;;;;15.40;53.60;;;15.75;36.84;98203.22;4953529;28;123516;-80
2023/03/18 00:03:30;;;;;;;;;;;15.40;53.60;;;15.75;36.86;98206.00;4967973;28;114489;-76
2023/03/18 00:06:08;;;;;;;;;;;15.40;53.50;;;15.75;36.84;98210.78;4964666;28;114127;-77
2023/03/18 00:08:34;;;;;;;;;;;15.40;53.50;;;15.72;36.70;98203.94;4947232;28;124256;-77
2023/03/18 00:11:01;;;;;;;;;;;15.40;53.60;;;15.72;36.65;98211.50;4952358;28;124008;-76
2023/03/18 00:13:27;;;;;;;;;;;15.40;53.60;;;15.70;36.55;98209.06;4953246;28;114656;-77
2023/03/18 00:15:54;;;;;;;;;;;15.40;53.50;;;15.69;36.84;98201.88;4957029;28;114208;-77
2023/03/18 00:18:20;;;;;;;;;;;15.40;53.60;;;15.68;36.54;98200.22;4972299;28;123746;-76
2023/03/18 00:20:46;;;;;;;;;;;15.40;53.60;;;15.67;36.73;98204.19;4971866;28;124314;-78
2023/03/18 00:23:13;;;;;;;;;;;15.40;53.60;;;15.66;36.80;98205.34;4964497;28;114391;-79
2023/03/18 00:25:39;;;;;;;;;;;15.30;53.50;;;15.64;36.93;98210.47;4969770;28;115083;-76
2023/03/18 00:28:06;;;;;;;;;;;15.30;53.40;;;15.63;36.75;98206.06;4967894;28;124420;-77
2023/03/18 00:30:33;;;;;;;;;;;15.30;53.40;;;15.61;36.76;98208.44;4970307;28;124725;-75
2023/03/18 00:33:00;;;;;;;;;;;15.30;53.30;;;15.60;36.54;98220.72;4968051;28;115967;-77
2023/03/18 00:35:29;;;;;;;;;;;15.30;53.30;;;15.60;36.56;98220.72;5000686;28;113750;-76
2023/03/18 00:37:57;;;;;;;;;;;15.30;53.30;;;15.58;36.67;98223.03;4969018;28;125043;-76
2023/03/18 00:40:29;;;;;;;;;;;15.30;53.20;;;15.56;36.75;98230.97;4968991;28;124654;-76
2023/03/18 00:43:06;;;;;;;;;;;15.30;53.20;;;15.54;36.63;98238.88;4969283;28;114824;-77
2023/03/18 00:45:36;;;;;;;;;;;15.20;53.20;;;15.51;36.85;98240.41;4969797;28;113846;-77
2023/03/18 00:48:03;;;;;;;;;;;15.20;53.20;;;15.50;36.81;98251.88;4968959;28;124390;-77
2023/03/18 00:50:29;;;;;;;;;;;15.20;53.40;;;15.46;36.97;98241.47;4969334;28;124007;-76
2023/03/18 00:52:56;;;;;;;;;;;15.20;53.40;;;15.44;36.88;98242.97;4967293;28;113484;-76
2023/03/18 00:55:22;;;;;;;;;;;15.10;53.40;;;15.42;37.02;98245.31;4965804;28;113934;-77
2023/03/18 00:57:48;;;;;;;;;;;15.10;53.50;;;15.40;37.06;98244.88;4968258;28;124045;-76
2023/03/18 01:00:15;;;;;;;;;;;15.10;53.50;;;15.38;37.02;98242.44;4969852;28;122761;-77
2023/03/18 01:02:43;;;;;;;;;;;15.10;53.60;;;15.36;37.10;98247.56;4975693;28;115245;-76
2023/03/18 01:05:13;;;;;;;;;;;15.10;53.60;;;15.35;37.28;98247.94;4968898;28;114134;-80
2023/03/18 01:07:40;;;;;;;;;;;15.10;53.70;;;15.33;37.17;98250.25;4968471;28;124847;-77
2023/03/18 01:10:08;;;;;;;;;;;15.00;53.60;;;15.32;37.04;98237.50;4967246;28;123973;-77
2023/03/18 01:12:34;;;;;;;;;;;15.00;53.50;;;15.31;37.11;98238.66;4968736;28;114576;-78
2023/03/18 01:15:00;;;;;;;;;;;15.00;53.40;;;15.30;36.99;98248.19;4969282;28;113575;-77
2023/03/18 01:17:27;;;;;;;;;;;15.00;53.40;;;15.29;37.04;98254.94;4976417;28;124292;-78
2023/03/18 01:19:54;;;;;;;;;;;15.00;53.30;;;15.25;36.84;98238.13;4984514;28;123593;-77
2023/03/18 01:22:20;;;;;;;;;;;15.00;53.10;;;15.25;36.76;98249.25;4954927;28;115471;-77
2023/03/18 01:24:46;;;;;;;;;;;15.00;53.10;;;15.24;36.88;98247.66;4967467;28;114399;-78
2023/03/18 01:27:12;;;;;;;;;;;15.00;53.10;;;15.20;36.76;98246.72;4968311;28;124334;-77
2023/03/18 01:29:39;;;;;;;;;;;14.90;53.00;;;15.19;36.78;98247.91;4995506;28;124138;-77
2023/03/18 01:32:05;;;;;;;;;;;14.90;53.10;;;15.17;36.94;98239.09;4971294;28;114547;-77
2023/03/18 01:34:33;;;;;;;;;;;14.90;53.10;;;15.16;36.90;98245.84;4970681;28;113528;-77
2023/03/18 01:37:00;;;;;;;;;;;14.90;53.20;;;15.15;37.06;98230.28;4985627;28;122943;-77
2023/03/18 01:39:26;;;;;;;;;;;14.90;53.30;;;15.14;36.97;98225.91;4968826;28;124087;-77
2023/03/18 01:41:53;;;;;;;;;;;14.80;53.30;;;15.13;37.27;98233.44;4968390;28;113479;-77
2023/03/18 01:44:22;;;;;;;;;;;14.90;53.50;;;15.13;37.40;98235.44;4969878;28;113093;-77
2023/03/18 01:46:49;;;;;;;;;;;14.80;53.60;;;15.11;37.24;98230.22;4998332;28;125025;-77
2023/03/18 01:49:37;;;;;;;;;;;14.80;53.60;;;15.08;37.15;98227.34;4963715;28;123734;-79
2023/03/18 01:52:15;;;;;;;;;;;14.80;53.50;;;15.08;36.88;98227.34;4994609;28;114438;-80
2023/03/18 01:54:48;;;;;;;;;;;14.80;53.40;;;15.06;37.15;98226.88;4967098;28;113990;-76
2023/03/18 01:57:16;;;;;;;;;;;14.80;53.50;;;15.05;37.04;98226.06;4968870;28;124808;-77
2023/03/18 01:59:45;;;;;;;;;;;14.70;53.30;;;15.04;37.19;98227.22;4966227;28;124059;-76
2023/03/18 02:02:14;;;;;;;;;;;14.70;53.40;;;15.04;37.11;98232.78;4976524;28;114346;-78
2023/03/18 02:04:52;;;;;;;;;;;14.70;53.40;;;15.02;37.05;98224.81;4971678;28;112908;-77
2023/03/18 02:07:26;;;;;;;;;;;14.70;53.50;;;15.04;37.10;98230.00;4968982;28;124354;-77
2023/03/18 02:09:54;;;;;;;;;;;14.70;53.40;;;15.02;36.69;98224.81;4993302;28;124068;-78
2023/03/18 02:12:28;;;;;;;;;;;14.70;53.20;;;15.05;36.54;98228.06;4985777;28;114537;-78
2023/03/18 02:14:55;;;;;;;;;;;14.70;52.80;;;15.06;36.31;98230.47;4966316;28;114878;-79
2023/03/18 02:17:25;;;;;;;;;;;14.70;52.60;;;15.08;36.21;98230.91;4966673;28;124241;-77
2023/03/18 02:20:28;;;;;;;;;;;14.70;52.40;;;15.08;36.29;98221.78;4967194;28;123983;-77
2023/03/18 02:23:20;;;;;;;;;;;14.70;52.30;;;15.08;35.87;98227.34;4963669;28;114615;-82
2023/03/18 02:25:57;;;;;;;;;;;14.70;52.30;;;15.08;36.23;98232.91;4968488;28;113798;-83
2023/03/18 02:28:26;;;;;;;;;;;14.70;52.20;;;15.09;35.97;98234.50;4989833;28;124244;-83
2023/03/18 02:30:58;;;;;;;;;;;14.70;52.20;;;15.08;35.89;98236.50;4966500;28;124544;-79
2023/03/18 02:33:29;;;;;;;;;;;14.70;52.00;;;15.08;35.85;98238.47;4991937;28;114410;-80
2023/03/18 02:35:59;;;;;;;;;;;14.70;52.00;;;15.07;35.90;98232.09;4965865;28;114366;-77
2023/03/18 02:38:25;;;;;;;;;;;14.70;51.90;;;15.05;35.66;98236.41;4967114;28;124330;-78
2023/03/18 02:40:52;;;;;;;;;;;14.70;51.80;;;15.02;35.92;98227.59;4967278;28;123924;-82
2023/03/18 02:43:24;;;;;;;;;;;14.70;51.90;;;15.02;35.76;98230.38;4968714;28;114456;-78
2023/03/18 02:46:08;;;;;;;;;;;14.70;51.90;;;15.02;35.91;98232.34;4967297;28;113844;-83
2023/03/18 02:48:42;;;;;;;;;;;14.70;51.90;;;15.02;35.63;98240.69;4993524;28;123695;-82
2023/03/18 02:51:09;;;;;;;;;;;14.70;52.00;;;15.02;36.07;98240.69;4995998;28;123995;-81
2023/03/18 02:53:36;;;;;;;;;;;14.70;52.00;;;15.04;36.05;98241.13;4958865;28;114371;-81
2023/03/18 02:56:04;;;;;;;;;;;14.80;52.20;;;15.03;36.36;98245.91;4968854;28;114641;-78
2023/03/18 02:58:31;;;;;;;;;;;14.70;52.20;;;15.03;36.16;98242.31;4970464;28;124530;-80
2023/03/18 03:00:57;;;;;;;;;;;14.70;52.20;;;15.03;36.24;98237.53;4973424;28;123912;-82
2023/03/18 03:03:24;;;;;;;;;;;14.70;52.30;;;15.01;36.07;98245.44;4973167;28;115486;-82
2023/03/18 03:05:51;;;;;;;;;;;14.70;52.40;;;15.02;36.31;98246.25;4969169;28;117620;-77
2023/03/18 03:08:18;;;;;;;;;;;14.70;52.50;;;15.00;36.30;98245.81;4971316;28;124269;-82
2023/03/18 03:10:45;;;;;;;;;;;14.70;52.50;;;14.99;36.42;98252.50;4969084;28;123572;-82
2023/03/18 03:13:11;;;;;;;;;;;14.70;52.40;;;14.99;36.22;98253.34;4974417;28;114416;-79
2023/03/18 03:15:38;;;;;;;;;;;14.70;52.40;;;15.00;35.96;98265.28;4988353;28;112944;-82
2023/03/18 03:18:05;;;;;;;;;;;14.70;52.30;;;15.00;36.28;98259.72;4974795;28;124439;-79
2023/03/18 03:20:34;;;;;;;;;;;14.70;52.20;;;14.98;36.19;98257.28;4969159;28;123970;-80
2023/03/18 03:23:10;;;;;;;;;;;14.60;52.20;;;14.98;36.42;98262.03;4964301;28;114382;-80
2023/03/18 03:25:36;;;;;;;;;;;14.60;52.20;;;14.96;36.20;98265.19;4986889;28;113456;-82
2023/03/18 03:28:03;;;;;;;;;;;14.60;52.30;;;14.96;36.35;98267.97;4990683;28;124028;-81
2023/03/18 03:30:30;;;;;;;;;;;14.60;52.30;;;14.93;36.38;98274.22;4970260;28;122910;-81
2023/03/18 03:32:56;;;;;;;;;;;14.60;52.30;;;14.91;36.21;98262.66;4977152;28;114645;-82
2023/03/18 03:35:23;;;;;;;;;;;14.60;52.30;;;14.89;36.36;98267.75;4970584;28;113646;-78
2023/03/18 03:37:50;;;;;;;;;;;14.60;52.30;;;14.88;36.36;98268.91;4970826;28;123197;-82
2023/03/18 03:40:19;;;;;;;;;;;14.60;52.30;;;14.86;35.92;98278.78;4987583;28;123966;-81
2023/03/18 03:42:46;;;;;;;;;;;14.60;52.30;;;14.83;36.49;98271.97;4971152;28;114452;-82
2023/03/18 03:45:14;;;;;;;;;;;14.50;52.30;;;14.82;36.52;98280.66;4971027;28;113802;-79
2023/03/18 03:47:41;;;;;;;;;;;14.60;52.40;;;14.80;36.74;98286.56;4972358;28;124842;-81
2023/03/18 03:50:09;;;;;;;;;;;14.50;52.50;;;14.79;36.86;98288.53;4985515;28;124636;-81
2023/03/18 03:52:37;;;;;;;;;;;14.50;52.60;;;14.78;36.81;98286.13;4987318;28;115757;-76
2023/03/18 03:55:08;;;;;;;;;;;14.50;52.70;;;14.77;36.86;98278.91;4971452;28;114152;-77
2023/03/18 03:57:35;;;;;;;;;;;14.50;52.80;;;14.76;37.00;98280.91;4966021;28;125325;-79
2023/03/18 04:00:09;;;;;;;;;;;14.50;52.90;;;14.75;36.98;98281.28;4987115;28;123702;-76
2023/03/18 04:02:36;;;;;;;;;;;14.50;53.00;;;14.72;37.48;98282.78;4976757;28;114651;-77
2023/03/18 04:05:02;;;;;;;;;;;14.40;53.00;;;14.70;37.04;98287.88;4969711;28;113829;-77
2023/03/18 04:07:29;;;;;;;;;;;14.40;53.10;;;14.67;37.16;98277.47;4969697;28;124097;-76
2023/03/18 04:09:55;;;;;;;;;;;14.40;53.10;;;14.67;37.17;98284.97;4969157;28;123859;-77
2023/03/18 04:12:21;;;;;;;;;;;14.40;53.20;;;14.64;37.05;98285.69;4985307;28;114479;-77
2023/03/18 04:14:48;;;;;;;;;;;14.40;53.00;;;14.63;37.02;98281.28;4987434;28;112892;-76
2023/03/18 04:17:15;;;;;;;;;;;14.40;53.00;;;14.61;37.07;98280.81;4976362;28;124377;-76
2023/03/18 04:19:42;;;;;;;;;;;14.30;52.90;;;14.61;37.03;98286.38;4969315;28;123937;-76
2023/03/18 04:22:08;;;;;;;;;;;14.30;52.90;;;14.60;37.10;98284.78;4969888;28;114919;-78
2023/03/18 04:24:35;;;;;;;;;;;14.30;52.90;;;14.62;37.37;98296.38;4968100;28;113926;-81
2023/03/18 04:27:01;;;;;;;;;;;14.30;52.90;;;14.60;36.97;98290.34;4969301;28;124353;-81
2023/03/18 04:29:28;;;;;;;;;;;14.30;53.00;;;14.58;36.92;98283.16;4969116;28;123734;-81
2023/03/18 04:31:55;;;;;;;;;;;14.30;52.90;;;14.57;36.91;98287.09;4985269;28;114299;-80
2023/03/18 04:34:21;;;;;;;;;;;14.30;53.00;;;14.58;36.98;98293.47;4973034;28;113966;-82
2023/03/18 04:36:48;;;;;;;;;;;14.30;53.00;;;14.58;37.07;98294.25;4968648;28;124228;-78
2023/03/18 04:39:15;;;;;;;;;;;14.30;53.10;;;14.57;37.04;98289.88;4969053;28;123067;-79
2023/03/18 04:41:41;;;;;;;;;;;14.30;53.10;;;14.57;37.00;98287.09;4965430;28;115516;-82
2023/03/18 04:44:08;;;;;;;;;;;14.30;53.10;;;14.58;37.11;98288.72;4982020;28;114881;-82
2023/03/18 04:46:35;;;;;;;;;;;14.30;53.10;;;14.57;37.15;98292.66;4978986;28;124258;-80
2023/03/18 04:49:01;;;;;;;;;;;14.20;53.10;;;14.56;37.27;98290.22;4975529;28;124079;-78
2023/03/18 04:51:27;;;;;;;;;;;14.20;53.20;;;14.53;37.21;98288.97;4972753;28;114758;-81
2023/03/18 04:53:54;;;;;;;;;;;14.20;53.20;;;14.52;37.53;98300.41;4968761;28;113052;-80
2023/03/18 04:56:20;;;;;;;;;;;14.20;53.30;;;14.51;37.41;98299.59;4971300;28;124398;-78
2023/03/18 04:58:46;;;;;;;;;;;14.20;53.30;;;14.48;37.20;98294.75;4967732;28;123999;-80
2023/03/18 05:01:13;;;;;;;;;;;14.20;53.30;;;14.46;37.13;98297.06;4967480;28;114354;-81
2023/03/18 05:03:40;;;;;;;;;;;14.10;53.30;;;14.45;37.34;98297.41;4970197;28;113061;-77
2023/03/18 05:06:20;;;;;;;;;;;14.10;53.30;;;14.43;37.40;98289.44;4971225;28;124495;-79
2023/03/18 05:08:46;;;;;;;;;;;14.10;53.30;;;14.41;37.50;98296.50;4970539;28;124634;-78
2023/03/18 05:11:13;;;;;;;;;;;14.10;53.40;;;14.39;37.39;98291.28;4969014;28;114462;-78
2023/03/18 05:13:40;;;;;;;;;;;14.10;53.40;;;14.37;37.66;98288.03;4968415;28;113828;-78
2023/03/18 05:16:07;;;;;;;;;;;14.10;53.40;;;14.35;37.62;98284.81;4974005;28;125424;-80
2023/03/18 05:18:34;;;;;;;;;;;14.10;53.50;;;14.33;37.61;98293.47;4970577;28;123896;-81
2023/03/18 05:21:01;;;;;;;;;;;14.00;53.50;;;14.31;37.62;98301.34;4969182;28;114350;-80
2023/03/18 05:23:28;;;;;;;;;;;14.00;53.60;;;14.29;37.60;98311.19;4969235;28;114012;-80
2023/03/18 05:25:54;;;;;;;;;;;14.00;53.60;;;14.27;37.63;98297.66;4967078;28;124899;-81
2023/03/18 05:28:21;;;;;;;;;;;14.00;53.70;;;14.25;38.01;98304.72;4968440;28;123969;-77
2023/03/18 05:30:47;;;;;;;;;;;14.00;53.90;;;14.22;37.97;98302.66;4988380;28;114428;-77
2023/03/18 05:33:14;;;;;;;;;;;13.90;54.00;;;14.18;38.11;98307.28;4986394;28;113098;-78
2023/03/18 05:35:41;;;;;;;;;;;13.90;54.10;;;14.14;38.49;98319.09;4967211;28;124399;-77
2023/03/18 05:38:07;;;;;;;;;;;13.90;54.40;;;14.10;38.48;98309.84;4970612;28;124381;-80
2023/03/18 05:40:34;;;;;;;;;;;13.90;54.50;;;14.08;38.47;98316.91;4968094;28;114187;-82
2023/03/18 05:43:01;;;;;;;;;;;13.80;54.50;;;14.03;38.73;98317.13;4968986;28;113715;-77
2023/03/18 05:45:28;;;;;;;;;;;13.80;54.70;;;14.01;38.96;98319.44;4966821;28;124029;-80
2023/03/18 05:47:54;;;;;;;;;;;13.80;54.80;;;13.98;39.14;98314.59;4980845;28;122916;-77
2023/03/18 05:50:34;;;;;;;;;;;13.80;55.00;;;13.93;39.09;98313.66;4967666;28;114161;-77
2023/03/18 05:53:01;;;;;;;;;;;13.70;55.10;;;13.90;39.39;98307.97;4998952;28;113922;-81
2023/03/18 05:55:28;;;;;;;;;;;13.70;55.30;;;13.87;39.42;98308.69;4956593;28;123978;-81
2023/03/18 05:57:55;;;;;;;;;;;13.60;55.40;;;13.85;39.72;98311.00;4949175;28;123935;-80
2023/03/18 06:00:23;;;;;;;;;;;13.60;55.60;;;13.84;39.53;98320.50;4955484;28;113922;-86
2023/03/18 06:02:53;;;;;;;;;;;13.60;55.80;;;13.80;39.70;98320.34;4982322;28;112815;-83
2023/03/18 06:05:20;;;;;;;;;;;13.60;55.90;;;13.78;39.87;98316.28;4976265;28;123949;-81
2023/03/18 06:07:47;;;;;;;;;;;13.50;56.00;;;13.76;40.11;98321.41;4951015;28;124754;-83
2023/03/18 06:10:13;;;;;;;;;;;13.50;56.20;;;13.75;40.09;98317.00;4952161;28;116069;-83
2023/03/18 06:12:43;;;;;;;;;;;13.50;56.40;;;13.70;40.13;98321.63;4950186;28;113728;-81
2023/03/18 06:15:11;;;;;;;;;;;13.50;56.60;;;13.68;40.32;98323.94;4952183;28;123478;-83
2023/03/18 06:17:37;;;;;;;;;;;13.40;56.60;;;13.66;40.47;98317.91;4964511;28;122766;-79
2023/03/18 06:20:05;;;;;;;;;;;13.40;56.80;;;13.65;40.68;98323.81;4966088;28;114744;-82
2023/03/18 06:22:31;;;;;;;;;;;13.40;57.00;;;13.62;40.74;98321.72;4964034;28;114171;-79
2023/03/18 06:24:58;;;;;;;;;;;13.40;57.20;;;13.59;41.03;98325.16;4953586;28;123665;-81
2023/03/18 06:27:24;;;;;;;;;;;13.40;57.40;;;13.57;41.10;98333.88;4952967;28;124085;-79
2023/03/18 06:29:50;;;;;;;;;;;13.30;57.50;;;13.55;41.11;98330.63;4954811;28;114573;-83
2023/03/18 06:32:17;;;;;;;;;;;13.30;57.80;;;13.53;41.27;98338.47;4956591;28;113810;-82
2023/03/18 06:34:44;;;;;;;;;;;13.30;58.00;;;13.50;41.54;98339.16;4979978;28;124368;-82
2023/03/18 06:37:10;;;;;;;;;;;13.30;58.20;;;13.48;41.77;98331.16;4983387;28;124046;-82
2023/03/18 06:39:37;;;;;;;;;;;13.30;58.50;;;13.48;41.80;98335.91;4946254;28;114465;-84
2023/03/18 06:42:03;;;;;;;;;;;13.20;58.60;;;13.48;42.08;98341.47;4960502;28;114050;-87
2023/03/18 06:44:31;;;;;;;;;;;13.20;58.90;;;13.46;42.11;98333.50;4962524;28;126475;-87
2023/03/18 06:46:57;;;;;;;;;;;13.20;59.30;;;13.46;42.26;98335.47;4980205;28;123231;-85
2023/03/18 06:49:23;;;;;;;;;;;13.20;59.20;;;13.45;42.43;98339.38;4966209;28;114394;-86
2023/03/18 06:51:49;;;;;;;;;;;13.20;59.40;;;13.43;42.80;98344.44;4964010;28;115066;-86
2023/03/18 06:54:17;;;;;;;;;;;13.20;59.70;;;13.42;42.76;98342.84;4968169;28;124295;-85
2023/03/18 06:56:43;;;;;;;;;;;13.20;59.90;;;13.42;42.95;98340.88;4968089;28;123900;-87
2023/03/18 06:59:10;;;;;;;;;;;13.20;60.00;;;13.44;42.96;98340.53;4970291;28;114307;-84
2023/03/18 07:01:36;;;;;;;;;;;13.20;60.30;;;13.47;42.90;98339.84;4965173;28;113494;-83
2023/03/18 07:04:05;;;;;;;;;;;13.20;60.40;;;13.50;43.05;98344.72;4989071;28;124345;-85
2023/03/18 07:06:31;;;;;;;;;;;13.20;60.50;;;13.54;43.00;98342.88;4966647;28;124699;-84
2023/03/18 07:09:00;;;;;;;;;;;13.20;60.70;;;13.58;43.19;98343.78;4992028;28;116487;-83
2023/03/18 07:11:26;;;;;;;;;;;13.20;60.90;;;13.66;43.02;98348.44;4966510;28;114627;-83
2023/03/18 07:13:54;;;;;;;;;;;13.30;61.00;;;13.72;42.99;98342.66;4967694;28;124213;-84
2023/03/18 07:16:21;;;;;;;;;;;13.30;61.00;;;13.81;42.81;98346.13;4971709;28;124572;-85
2023/03/18 07:18:47;;;;;;;;;;;13.40;61.20;;;13.88;42.90;98349.97;4990463;28;114653;-84
2023/03/18 07:21:15;;;;;;;;;;;13.40;61.20;;;13.97;42.78;98351.84;4958595;28;113860;-82
2023/03/18 07:23:41;;;;;;;;;;;13.50;61.30;;;14.02;42.88;98346.84;4964509;28;124626;-84
2023/03/18 07:26:11;;;;;;;;;;;13.50;61.30;;;14.11;42.74;98352.31;4966311;28;124253;-84
2023/03/18 07:28:37;;;;;;;;;;;13.60;61.50;;;14.17;42.57;98350.94;4978326;28;114042;-85
2023/03/18 07:31:04;;;;;;;;;;;13.60;61.50;;;14.23;42.38;98354.28;4956910;28;114115;-85
2023/03/18 07:33:32;;;;;;;;;;;13.70;61.40;;;14.29;42.31;98359.28;4974962;28;123322;-83
2023/03/18 07:35:58;;;;;;;;;;;13.70;61.40;;;14.36;42.54;98361.47;4958216;28;124102;-84
2023/03/18 07:38:24;;;;;;;;;;;13.80;61.40;;;14.46;42.24;98352.66;4970302;28;114820;-84
2023/03/18 07:40:51;;;;;;;;;;;13.90;61.40;;;14.53;42.16;98358.47;4968569;28;112180;-85
2023/03/18 07:43:17;;;;;;;;;;;14.00;61.50;;;14.61;42.04;98358.69;4963965;28;123969;-81
2023/03/18 07:45:44;;;;;;;;;;;14.00;61.40;;;14.68;42.00;98356.94;4960785;28;124023;-79
2023/03/18 07:48:11;;;;;;;;;;;14.10;61.40;;;14.76;41.75;98361.53;4984851;28;114360;-81
2023/03/18 07:50:40;;;;;;;;;;;14.20;61.30;;;14.83;41.71;98360.97;4964542;28;113672;-79
2023/03/18 07:53:06;;;;;;;;;;;14.30;61.20;;;14.90;41.53;98361.16;4964743;28;124605;-78
2023/03/18 07:55:33;;;;;;;;;;;14.30;61.10;;;14.98;41.61;98359.41;4947323;28;125815;-79
2023/03/18 07:57:59;;;;;;;;;;;14.40;61.30;;;15.01;41.36;98353.94;4947046;28;116301;-83
2023/03/18 08:00:26;;;;;;;;;;;14.40;60.60;;;15.06;41.01;98364.00;4947388;28;115024;-80
2023/03/18 08:02:52;;;;;;;;;;;14.50;60.40;;;15.09;41.33;98354.94;4950438;28;124963;-82
2023/03/18 08:05:20;;;;;;;;;;;14.50;60.80;;;15.16;41.32;98359.94;4932439;28;124465;-82
2023/03/18 08:07:47;;;;;;;;;;;14.60;61.10;;;15.21;41.61;98362.47;4941220;28;114745;-87
2023/03/18 08:10:14;;;;;;;;;;;14.60;60.80;;;15.26;40.77;98362.22;4943547;28;114427;-81
2023/03/18 08:12:41;;;;;;;;;;;14.70;60.10;;;15.32;40.90;98363.56;4944710;28;124427;-78
2023/03/18 08:15:08;;;;;;;;;;;14.70;60.30;;;15.40;40.44;98362.59;4938483;28;123840;-78
2023/03/18 08:17:35;;;;;;;;;;;14.80;60.00;;;15.48;40.73;98368.38;4949695;28;113603;-77
2023/03/18 08:20:02;;;;;;;;;;;14.90;60.00;;;15.59;41.41;98367.50;4946674;28;113701;-81
2023/03/18 08:22:28;;;;;;;;;;;15.00;61.10;;;15.73;41.97;98371.88;4946892;28;124137;-86
2023/03/18 08:24:56;;;;;;;;;;;15.10;62.40;;;15.90;42.27;98368.72;4951274;28;124119;-86
2023/03/18 08:27:24;;;;;;;;;;;15.20;63.10;;;16.07;42.50;98368.38;4949649;28;113625;-75
2023/03/18 08:29:50;;;;;;;;;;;15.30;63.40;;;16.23;42.21;98359.22;4949278;28;113532;-78
2023/03/18 08:32:18;;;;;;;;;;;15.50;63.40;;;16.41;41.96;98365.22;4952009;28;124473;-77
2023/03/18 08:34:45;;;;;;;;;;;15.60;63.40;;;16.57;41.93;98357.63;4942333;28;123828;-75
2023/03/18 08:37:11;;;;;;;;;;;15.80;63.50;;;16.75;41.59;98364.41;4937820;28;115124;-75
2023/03/18 08:39:38;;;;;;;;;;;15.90;63.40;;;16.88;41.18;98367.13;4940462;28;114010;-75
2023/03/18 08:42:05;;;;;;;;;;;16.00;62.50;;;16.99;40.54;98357.00;4936772;28;124308;-77
2023/03/18 08:44:32;;;;;;;;;;;16.20;62.30;;;17.08;39.63;98354.78;4944004;28;124326;-76
2023/03/18 08:46:58;;;;;;;;;;;16.30;61.20;;;17.18;39.81;98354.19;4948593;28;115513;-77
2023/03/18 08:49:25;;;;;;;;;;;16.40;61.20;;;17.26;38.87;98354.34;4963205;28;114043;-81
2023/03/18 08:51:51;;;;;;;;;;;16.50;60.00;;;17.30;38.20;98352.44;4966045;28;123260;-80
2023/03/18 08:54:18;;;;;;;;;;;16.60;59.00;;;17.32;37.11;98350.88;4960114;28;124031;-85
2023/03/18 08:56:44;;;;;;;;;;;16.60;57.50;;;17.33;36.73;98338.56;4965478;28;114389;-88
2023/03/18 08:59:11;;;;;;;;;;;16.70;56.90;;;17.36;36.56;98342.59;4963335;28;114092;-82
2023/03/18 09:01:38;;;;;;;;;;;16.70;56.40;;;17.37;36.21;98339.44;4966913;28;124301;-76
2023/03/18 09:04:05;;;;;;;;;;;16.80;55.90;;;17.40;36.48;98338.69;4972053;28;124088;-75
2023/03/18 09:06:31;;;;;;;;;;;16.80;55.70;;;17.44;35.77;98333.97;4969622;28;115153;-88
2023/03/18 09:08:58;;;;;;;;;;;16.80;54.80;;;17.49;35.45;98332.88;4987430;28;112761;-89
2023/03/18 09:11:24;;;;;;;;;;;16.90;54.20;;;17.56;36.00;98341.38;4964524;28;125962;-78
2023/03/18 09:13:51;;;;;;;;;;;17.00;55.50;;;17.62;35.54;98328.75;4966017;28;124253;-81
2023/03/18 09:16:17;;;;;;;;;;;17.00;54.70;;;17.69;35.78;98341.22;4964487;28;114490;-84
2023/03/18 09:18:43;;;;;;;;;;;17.00;55.10;;;17.71;34.52;98334.09;4953048;28;114092;-82
2023/03/18 09:21:10;;;;;;;;;;;17.10;53.30;;;17.71;34.23;98331.28;4955607;28;124991;-83
2023/03/18 09:23:37;;;;;;;;;;;17.10;52.70;;;17.71;34.84;98324.91;4987580;28;124233;-83
2023/03/18 09:26:04;;;;;;;;;;;17.10;53.40;;;17.72;34.69;98327.31;4971459;28;114713;-83
2023/03/18 09:28:30;;;;;;;;;;;17.20;53.50;;;17.74;34.81;98324.16;4966225;28;114389;-83
2023/03/18 09:30:57;;;;;;;;;;;17.20;53.40;;;17.77;34.94;98326.19;4967252;28;123688;-83
2023/03/18 09:33:24;;;;;;;;;;;17.20;53.60;;;17.81;34.40;98318.69;4966496;28;123986;-82
2023/03/18 09:35:50;;;;;;;;;;;17.30;53.10;;;17.84;34.38;98324.38;4960692;28;116096;-82
2023/03/18 09:38:18;;;;;;;;;;;17.30;52.80;;;17.86;34.58;98323.97;4957872;28;114766;-81
2023/03/18 09:41:00;;;;;;;;;;;17.30;52.60;;;17.90;34.33;98324.06;4953514;28;124706;-82
2023/03/18 09:43:49;;;;;;;;;;;17.30;52.90;;;17.94;35.09;98328.50;4969262;28;124580;-81
2023/03/18 09:46:41;;;;;;;;;;;17.40;53.70;;;18.01;34.37;98317.47;4983626;28;113965;-81
2023/03/18 09:49:08;;;;;;;;;;;17.40;53.20;;;18.04;34.36;98315.91;4964978;28;115047;-76
2023/03/18 09:52:05;;;;;;;;;;;17.50;52.80;;;18.07;34.07;98321.56;4984844;28;123181;-76
2023/03/18 09:54:39;;;;;;;;;;;17.50;52.60;;;18.12;34.22;98319.63;4945512;28;123066;-81
2023/03/18 09:57:14;;;;;;;;;;;17.60;52.20;;;18.15;33.75;98322.47;4964174;28;113429;-74
2023/03/18 09:59:46;;;;;;;;;;;17.60;51.90;;;18.17;34.17;98311.72;4957647;28;113015;-80
2023/03/18 10:02:28;;;;;;;;;;;17.50;52.50;;;18.25;34.14;98307.06;4979285;28;124132;-79
2023/03/18 10:04:57;;;;;;;;;;;17.70;52.70;;;18.31;33.89;98308.34;4961139;28;123329;-78
2023/03/18 10:07:31;;;;;;;;;;;17.80;52.30;;;18.37;33.34;98306.84;4950929;28;113992;-80
2023/03/18 10:10:22;;;;;;;;;;;17.80;51.50;;;18.37;32.70;98306.03;4953322;28;113926;-80
2023/03/18 10:12:59;;;;;;;;;;;17.80;50.80;;;18.36;33.26;98298.84;4956943;28;124536;-80
2023/03/18 10:15:35;;;;;;;;;;;17.80;51.00;;;18.37;33.04;98303.25;4975752;28;124282;-79
2023/03/18 10:18:17;;;;;;;;;;;17.90;50.80;;;18.42;33.54;98303.72;4968004;28;114650;-79
2023/03/18 10:20:55;;;;;;;;;;;17.90;51.40;;;18.48;33.12;98305.03;4966668;28;114329;-81
2023/03/18 10:23:59;;;;;;;;;;;18.00;51.00;;;18.52;33.56;98313.47;4985742;28;124324;-80
2023/03/18 10:26:41;;;;;;;;;;;18.00;51.50;;;18.57;32.94;98296.34;4966896;28;124641;-81
2023/03/18 10:29:40;;;;;;;;;;;18.10;50.90;;;18.60;33.12;98306.78;4974191;28;115481;-80
2023/03/18 10:32:39;;;;;;;;;;;18.10;51.10;;;18.60;32.52;98295.59;4983141;28;114975;-80
2023/03/18 10:35:17;;;;;;;;;;;18.10;50.20;;;18.65;32.67;98288.88;4959573;28;124467;-82
2023/03/18 10:38:03;;;;;;;;;;;18.10;51.00;;;18.64;32.47;98293.63;4952749;28;124170;-80
2023/03/18 10:40:40;;;;;;;;;;;18.20;49.90;;;18.70;32.65;98296.94;4954453;28;114132;-76
2023/03/18 10:43:15;;;;;;;;;;;18.20;50.30;;;18.77;32.44;98291.44;4988934;28;113801;-81
2023/03/18 10:45:42;;;;;;;;;;;18.30;50.50;;;18.83;32.23;98281.53;4952969;28;124168;-84
2023/03/18 10:48:19;;;;;;;;;;;18.30;50.00;;;18.90;32.08;98283.63;4956981;28;123908;-82
2023/03/18 10:50:51;;;;;;;;;;;18.40;49.80;;;18.94;31.87;98278.84;4983200;28;114396;-81
2023/03/18 10:53:33;;;;;;;;;;;18.40;49.40;;;18.99;31.29;98281.31;4973460;28;113232;-80
2023/03/18 10:56:05;;;;;;;;;;;18.50;48.60;;;19.08;31.10;98272.66;4955799;28;124221;-79
2023/03/18 10:58:32;;;;;;;;;;;18.60;48.10;;;19.14;30.98;98269.09;4967061;28;124204;-79
2023/03/18 11:00:59;;;;;;;;;;;18.60;48.10;;;19.23;30.40;98270.81;4962106;28;114815;-80
2023/03/18 11:03:37;;;;;;;;;;;18.70;47.80;;;19.29;30.47;98264.47;4972373;28;113594;-80
2023/03/18 11:06:04;;;;;;;;;;;18.70;47.20;;;19.36;29.80;98264.53;4962848;28;124276;-81
2023/03/18 11:08:35;;;;;;;;;;;18.80;46.50;;;19.42;30.12;98263.03;4964675;28;124029;-80
2023/03/18 11:11:26;;;;;;;;;;;18.90;46.80;;;19.50;29.92;98260.28;4984888;28;116400;-80
2023/03/18 11:13:55;;;;;;;;;;;18.90;46.70;;;19.57;29.47;98261.16;4952872;28;113574;-80
2023/03/18 11:16:29;;;;;;;;;;;19.00;45.60;;;19.60;29.42;98251.97;4980771;28;124103;-80
2023/03/18 11:18:56;;;;;;;;;;;19.10;45.70;;;19.67;28.67;98254.06;4952645;28;124021;-79